createdAt,value
2023-03-16T00:01:08.211Z,5.24
2023-03-16T00:03:35.341Z,4.96
2023-03-16T00:06:03.991Z,4.91
2023-03-16T00:08:30.873Z,5.05
2023-03-16T00:10:57.516Z,4.95
2023-03-16T00:13:25.115Z,4.78
2023-03-16T00:15:53.394Z,4.92
2023-03-16T00:18:20.116Z,5.04
2023-03-16T00:20:50.898Z,4.78
2023-03-16T00:23:19.189Z,4.97
2023-03-16T00:25:45.761Z,4.91
2023-03-16T00:28:12.335Z,4.82
2023-03-16T00:30:38.906Z,4.59
2023-03-16T00:33:05.729Z,4.78
2023-03-16T00:35:32.336Z,4.76
2023-03-16T00:37:58.922Z,4.72
2023-03-16T00:40:27.242Z,4.75
2023-03-16T00:42:53.932Z,4.82
2023-03-16T00:45:20.517Z,4.75
2023-03-16T00:47:47.067Z,4.79
2023-03-16T00:50:13.872Z,4.82
2023-03-16T00:52:40.479Z,4.86
2023-03-16T00:55:07.731Z,4.94
2023-03-16T00:57:35.637Z,4.87
2023-03-16T01:00:02.279Z,4.80
2023-03-16T01:02:28.851Z,5.09
2023-03-16T01:04:55.426Z,4.92
2023-03-16T01:07:22.453Z,4.92
2023-03-16T01:09:49.051Z,5.07
2023-03-16T01:12:18.146Z,5.16
2023-03-16T01:14:46.628Z,5.36
2023-03-16T01:17:14.832Z,5.20
2023-03-16T01:19:42.069Z,5.28
2023-03-16T01:22:09.452Z,5.36
2023-03-16T01:24:36.827Z,5.47
2023-03-16T01:27:04.305Z,5.51
2023-03-16T01:29:31.578Z,5.26
2023-03-16T01:32:00.106Z,5.32
2023-03-16T01:34:26.863Z,5.30
2023-03-16T01:36:53.606Z,5.23
2023-03-16T01:39:20.251Z,5.40
2023-03-16T01:41:47.327Z,5.20
2023-03-16T01:44:16.382Z,5.32
2023-03-16T01:46:42.998Z,5.42
2023-03-16T01:49:14.718Z,5.35
2023-03-16T01:51:43.581Z,5.37
2023-03-16T01:54:20.449Z,5.49
2023-03-16T01:56:53.308Z,5.41
2023-03-16T01:59:23.823Z,5.45
2023-03-16T02:01:51.625Z,5.44
2023-03-16T02:04:32.833Z,5.48
2023-03-16T02:07:00.287Z,5.59
2023-03-16T02:09:27.921Z,5.15
2023-03-16T02:11:56.541Z,5.28
2023-03-16T02:14:23.163Z,5.46
2023-03-16T02:16:49.777Z,5.56
2023-03-16T02:19:24.523Z,5.44
2023-03-16T02:21:58.558Z,5.32
2023-03-16T02:24:26.048Z,5.18
2023-03-16T02:26:57.051Z,5.40
2023-03-16T02:29:41.319Z,5.27
2023-03-16T02:32:08.963Z,5.48
2023-03-16T02:34:36.232Z,5.42
2023-03-16T02:37:04.189Z,5.34
2023-03-16T02:39:30.782Z,5.38
2023-03-16T02:41:57.370Z,5.16
2023-03-16T02:44:28.246Z,5.42
2023-03-16T02:47:00.751Z,5.42
2023-03-16T02:49:33.910Z,5.45
2023-03-16T02:52:00.446Z,5.53
2023-03-16T02:54:27.217Z,5.51
2023-03-16T02:56:53.982Z,5.30
2023-03-16T02:59:20.539Z,5.21
2023-03-16T03:01:47.408Z,5.17
2023-03-16T03:04:15.926Z,5.25
2023-03-16T03:06:42.677Z,5.34
2023-03-16T03:09:09.991Z,5.34
2023-03-16T03:11:36.578Z,5.28
2023-03-16T03:14:03.199Z,5.41
2023-03-16T03:16:30.470Z,5.39
2023-03-16T03:18:57.379Z,5.45
2023-03-16T03:21:25.902Z,5.41
2023-03-16T03:23:52.594Z,5.49
2023-03-16T03:26:19.339Z,5.48
2023-03-16T03:28:46.369Z,5.38
2023-03-16T03:31:14.370Z,5.29
2023-03-16T03:33:41.057Z,5.29
2023-03-16T03:36:08.291Z,5.27
2023-03-16T03:38:36.384Z,5.40
2023-03-16T03:41:03.211Z,5.27
2023-03-16T03:43:29.818Z,5.11
2023-03-16T03:45:56.705Z,5.14
2023-03-16T03:48:23.745Z,5.31
2023-03-16T03:50:50.369Z,5.36
2023-03-16T03:53:17.883Z,5.30
2023-03-16T03:55:46.034Z,5.15
2023-03-16T03:58:12.614Z,5.11
2023-03-16T04:00:39.358Z,4.95
2023-03-16T04:03:06.054Z,5.05
2023-03-16T04:05:32.791Z,5.24
2023-03-16T04:07:59.332Z,5.20
2023-03-16T04:10:27.750Z,5.01
2023-03-16T04:12:57.621Z,5.15
2023-03-16T04:15:24.246Z,5.11
2023-03-16T04:17:50.972Z,5.10
2023-03-16T04:20:17.661Z,5.27
2023-03-16T04:22:44.718Z,5.22
2023-03-16T04:25:12.801Z,5.04
2023-03-16T04:27:39.454Z,5.09
2023-03-16T04:30:10.199Z,5.14
2023-03-16T04:32:37.755Z,5.18
2023-03-16T04:35:05.382Z,5.19
2023-03-16T04:37:32.352Z,4.98
2023-03-16T04:39:59.104Z,4.96
2023-03-16T04:42:25.803Z,4.91
2023-03-16T04:44:52.365Z,4.95
2023-03-16T04:47:20.296Z,4.93
2023-03-16T04:49:46.866Z,4.99
2023-03-16T04:52:13.492Z,5.13
2023-03-16T04:54:40.101Z,4.91
2023-03-16T04:57:06.737Z,5.04
2023-03-16T04:59:33.324Z,5.05
2023-03-16T05:01:59.897Z,5.17
2023-03-16T05:04:28.318Z,5.30
2023-03-16T05:06:54.874Z,4.96
2023-03-16T05:09:21.696Z,5.32
2023-03-16T05:11:48.227Z,5.38
2023-03-16T05:14:14.830Z,5.44
2023-03-16T05:16:41.388Z,5.52
2023-03-16T05:19:08.105Z,5.45
2023-03-16T05:21:36.172Z,5.42
2023-03-16T05:24:02.880Z,5.73
2023-03-16T05:26:29.610Z,5.55
2023-03-16T05:28:56.183Z,5.62
2023-03-16T05:31:22.839Z,5.67
2023-03-16T05:33:49.451Z,5.65
2023-03-16T05:36:16.089Z,5.78
2023-03-16T05:38:44.080Z,5.76
2023-03-16T05:41:10.827Z,5.78
2023-03-16T05:43:37.525Z,5.78
2023-03-16T05:46:04.369Z,6.06
2023-03-16T05:48:30.979Z,6.06
2023-03-16T05:50:57.680Z,6.28
2023-03-16T05:53:24.326Z,5.95
2023-03-16T05:55:53.179Z,6.07
2023-03-16T05:58:20.291Z,6.07
2023-03-16T06:00:47.125Z,6.01
2023-03-16T06:03:13.837Z,5.82
2023-03-16T06:05:40.788Z,6.03
2023-03-16T06:08:07.375Z,6.01
2023-03-16T06:10:33.968Z,6.05
2023-03-16T06:13:02.180Z,6.07
2023-03-16T06:15:31.740Z,5.82
2023-03-16T06:17:58.472Z,6.10
2023-03-16T06:20:25.073Z,6.11
2023-03-16T06:22:51.641Z,6.03
2023-03-16T06:25:18.465Z,6.09
2023-03-16T06:27:45.351Z,6.34
2023-03-16T06:30:14.571Z,6.44
2023-03-16T06:32:41.292Z,6.54
2023-03-16T06:35:09.603Z,6.67
2023-03-16T06:37:36.648Z,6.51
2023-03-16T06:40:04.130Z,6.61
2023-03-16T06:42:30.671Z,6.69
2023-03-16T06:44:57.362Z,6.77
2023-03-16T06:47:25.893Z,6.82
2023-03-16T06:49:52.564Z,6.69
2023-03-16T06:52:19.112Z,7.12
2023-03-16T06:54:45.660Z,7.27
2023-03-16T06:57:12.414Z,7.43
2023-03-16T06:59:38.967Z,7.57
2023-03-16T07:02:05.778Z,7.76
2023-03-16T07:04:33.807Z,7.91
2023-03-16T07:07:00.470Z,7.97
2023-03-16T07:09:27.027Z,8.06
2023-03-16T07:11:53.822Z,8.43
2023-03-16T07:14:20.492Z,8.26
2023-03-16T07:16:47.076Z,7.99
2023-03-16T07:19:13.690Z,8.18
2023-03-16T07:21:41.645Z,8.04
2023-03-16T07:24:10.212Z,8.21
2023-03-16T07:26:37.006Z,8.27
2023-03-16T07:29:04.334Z,8.25
2023-03-16T07:31:30.961Z,8.33
2023-03-16T07:33:57.545Z,8.44
2023-03-16T07:36:24.337Z,8.57
2023-03-16T07:38:52.245Z,8.38
2023-03-16T07:41:18.905Z,8.49
2023-03-16T07:43:45.535Z,8.46
2023-03-16T07:46:12.122Z,8.28
2023-03-16T07:48:38.763Z,8.18
2023-03-16T07:51:05.891Z,8.35
2023-03-16T07:53:32.558Z,8.28
2023-03-16T07:56:00.858Z,8.29
2023-03-16T07:58:27.896Z,8.29
2023-03-16T08:00:56.469Z,8.35
2023-03-16T08:03:23.172Z,8.33
2023-03-16T08:05:49.717Z,8.52
2023-03-16T08:08:16.271Z,8.23
2023-03-16T08:10:43.011Z,8.60
2023-03-16T08:13:10.978Z,8.44
2023-03-16T08:15:37.572Z,8.40
2023-03-16T08:18:04.159Z,8.32
2023-03-16T08:20:31.224Z,8.75
2023-03-16T08:22:58.119Z,8.86
2023-03-16T08:25:24.933Z,8.49
2023-03-16T08:27:51.533Z,8.66
2023-03-16T08:30:19.573Z,8.51
2023-03-16T08:32:46.201Z,8.81
2023-03-16T08:35:14.746Z,9.23
2023-03-16T08:37:41.548Z,8.88
2023-03-16T08:40:09.452Z,8.93
2023-03-16T08:42:36.577Z,8.76
2023-03-16T08:45:03.226Z,9.04
2023-03-16T08:47:31.149Z,9.33
2023-03-16T08:49:57.735Z,9.40
2023-03-16T08:52:24.303Z,9.28
2023-03-16T08:55:02.358Z,9.54
2023-03-16T08:57:30.321Z,9.61
2023-03-16T08:59:56.880Z,9.59
2023-03-16T09:02:23.400Z,9.63
2023-03-16T09:04:51.671Z,9.06
2023-03-16T09:07:18.304Z,9.55
2023-03-16T09:09:45.144Z,9.96
2023-03-16T09:12:12.197Z,10.34
2023-03-16T09:14:38.978Z,10.41
2023-03-16T09:17:10.566Z,10.26
2023-03-16T09:19:50.526Z,10.20
2023-03-16T09:22:20.657Z,10.15
2023-03-16T09:24:47.467Z,9.97
2023-03-16T09:27:14.393Z,10.12
2023-03-16T09:29:41.209Z,10.58
2023-03-16T09:32:08.909Z,10.48
2023-03-16T09:34:35.520Z,10.48
2023-03-16T09:37:02.191Z,10.42
2023-03-16T09:39:30.198Z,10.90
2023-03-16T09:42:04.345Z,11.46
2023-03-16T09:44:39.074Z,12.03
2023-03-16T09:47:09.019Z,11.78
2023-03-16T09:49:40.424Z,11.99
2023-03-16T09:52:20.590Z,12.08
2023-03-16T09:54:55.669Z,12.21
2023-03-16T09:57:26.831Z,12.65
2023-03-16T09:59:53.564Z,12.67
2023-03-16T10:02:40.619Z,12.30
2023-03-16T10:05:10.187Z,12.20
2023-03-16T10:07:49.761Z,12.16
2023-03-16T10:10:28.783Z,12.29
2023-03-16T10:13:00.643Z,12.59
2023-03-16T10:15:32.517Z,12.51
2023-03-16T10:18:03.732Z,12.81
2023-03-16T10:20:33.486Z,12.84
2023-03-16T10:23:07.902Z,12.60
2023-03-16T10:25:46.166Z,12.49
2023-03-16T10:28:16.166Z,12.99
2023-03-16T10:30:43.990Z,13.20
2023-03-16T10:33:20.429Z,13.30
2023-03-16T10:35:48.778Z,13.47
2023-03-16T10:38:31.478Z,13.49
2023-03-16T10:40:59.923Z,13.26
2023-03-16T10:43:27.990Z,12.93
2023-03-16T10:45:58.707Z,12.78
2023-03-16T10:48:26.064Z,12.78
2023-03-16T10:50:56.664Z,13.45
2023-03-16T10:53:26.750Z,13.41
2023-03-16T10:55:59.864Z,13.95
2023-03-16T10:58:30.845Z,13.92
2023-03-16T11:00:58.038Z,13.40
2023-03-16T11:03:27.474Z,13.98
2023-03-16T11:05:58.875Z,14.19
2023-03-16T11:08:27.258Z,14.24
2023-03-16T11:10:59.926Z,14.31
2023-03-16T11:13:33.923Z,14.59
2023-03-16T11:16:06.398Z,15.01
2023-03-16T11:18:37.908Z,15.17
2023-03-16T11:21:12.093Z,14.80
2023-03-16T11:23:43.828Z,14.83
2023-03-16T11:26:19.070Z,14.92
2023-03-16T11:28:51.779Z,15.10
2023-03-16T11:31:25.088Z,14.85
2023-03-16T11:33:52.131Z,14.67
2023-03-16T11:36:35.807Z,14.41
2023-03-16T11:39:10.675Z,14.03
2023-03-16T11:41:49.778Z,14.12
2023-03-16T11:44:21.615Z,13.96
2023-03-16T11:46:56.367Z,13.55
2023-03-16T11:49:39.580Z,13.38
2023-03-16T11:52:17.173Z,13.12
2023-03-16T11:54:52.534Z,12.99
2023-03-16T11:57:37.741Z,12.95
2023-03-16T12:00:23.759Z,12.95
2023-03-16T12:03:02.178Z,13.39
2023-03-16T12:05:41.431Z,13.62
2023-03-16T12:08:24.412Z,13.22
2023-03-16T12:10:55.700Z,13.21
2023-03-16T12:13:35.080Z,13.29
2023-03-16T12:16:08.848Z,13.80
2023-03-16T12:18:42.815Z,14.03
2023-03-16T12:21:15.159Z,13.99
2023-03-16T12:23:49.202Z,13.52
2023-03-16T12:26:17.013Z,13.81
2023-03-16T12:28:45.593Z,13.56
2023-03-16T12:31:16.628Z,13.92
2023-03-16T12:33:57.729Z,14.07
2023-03-16T12:36:58.069Z,14.02
2023-03-16T12:39:54.065Z,13.96
2023-03-16T12:42:32.472Z,14.40
2023-03-16T12:45:04.376Z,14.83
2023-03-16T12:47:39.128Z,15.00
2023-03-16T12:50:07.681Z,14.44
2023-03-16T12:52:42.374Z,15.04
2023-03-16T12:55:14.377Z,14.67
2023-03-16T12:57:42.424Z,15.21
2023-03-16T13:00:13.488Z,15.37
2023-03-16T13:02:44.718Z,15.26
2023-03-16T13:05:14.297Z,14.80
2023-03-16T13:07:48.048Z,14.86
2023-03-16T13:10:17.024Z,14.97
2023-03-16T13:12:44.195Z,15.13
2023-03-16T13:15:28.949Z,15.21
2023-03-16T13:18:19.698Z,14.82
2023-03-16T13:20:52.426Z,15.17
2023-03-16T13:23:25.048Z,14.99
2023-03-16T13:26:14.566Z,15.04
2023-03-16T13:28:42.258Z,14.82
2023-03-16T13:31:24.412Z,15.10
2023-03-16T13:33:54.348Z,14.69
2023-03-16T13:36:21.356Z,14.79
2023-03-16T13:38:56.707Z,14.26
2023-03-16T13:41:23.304Z,14.49
2023-03-16T13:43:49.882Z,14.74
2023-03-16T13:46:18.094Z,14.70
2023-03-16T13:48:47.646Z,14.56
2023-03-16T13:51:17.288Z,14.71
2023-03-16T13:53:44.703Z,14.70
2023-03-16T13:56:14.938Z,14.54
2023-03-16T13:58:45.731Z,14.38
2023-03-16T14:01:25.241Z,14.31
2023-03-16T14:07:17.611Z,14.10
2023-03-16T14:09:45.119Z,14.16
2023-03-16T14:12:14.449Z,14.30
2023-03-16T14:14:41.594Z,14.39
2023-03-16T14:17:12.002Z,14.59
2023-03-16T14:19:42.805Z,14.67
2023-03-16T14:22:18.697Z,14.85
2023-03-16T14:24:51.781Z,14.68
2023-03-16T14:27:20.772Z,14.58
2023-03-16T14:29:54.317Z,14.71
2023-03-16T14:32:23.739Z,14.87
2023-03-16T14:34:50.546Z,14.69
2023-03-16T14:37:18.563Z,14.57
2023-03-16T14:39:45.709Z,14.52
2023-03-16T14:42:17.889Z,14.62
2023-03-16T14:44:44.678Z,14.86
2023-03-16T14:47:21.313Z,14.71
2023-03-16T14:49:48.222Z,14.80
2023-03-16T14:52:23.076Z,14.79
2023-03-16T14:54:49.796Z,14.97
2023-03-16T14:57:17.240Z,15.29
2023-03-16T14:59:43.934Z,14.82
2023-03-16T15:02:16.955Z,14.80
2023-03-16T15:04:44.041Z,14.93
2023-03-16T15:07:23.880Z,14.94
2023-03-16T15:09:52.773Z,14.73
2023-03-16T15:12:21.011Z,15.08
2023-03-16T15:14:48.215Z,15.17
2023-03-16T15:17:15.384Z,15.03
2023-03-16T15:19:42.037Z,15.24
2023-03-16T15:22:11.913Z,15.05
2023-03-16T15:24:40.093Z,14.73
2023-03-16T15:27:19.761Z,14.78
2023-03-16T15:29:46.637Z,14.70
2023-03-16T15:32:14.585Z,14.72
2023-03-16T15:34:41.245Z,14.77
2023-03-16T15:37:12.517Z,14.96
2023-03-16T15:39:40.639Z,14.92
2023-03-16T15:42:14.456Z,14.62
2023-03-16T15:44:41.413Z,14.25
2023-03-16T15:47:08.229Z,14.16
2023-03-16T15:49:46.631Z,14.10
2023-03-16T15:52:26.682Z,13.92
2023-03-16T15:54:54.700Z,13.85
2023-03-16T15:57:21.282Z,13.92
2023-03-16T15:59:47.960Z,13.84
2023-03-16T16:02:26.909Z,13.95
2023-03-16T16:04:53.552Z,13.82
2023-03-16T16:07:20.255Z,13.44
2023-03-16T16:09:46.812Z,13.62
2023-03-16T16:12:15.638Z,13.39
2023-03-16T16:14:42.627Z,13.33
2023-03-16T16:17:11.113Z,13.35
2023-03-16T16:19:37.784Z,13.47
2023-03-16T16:22:04.605Z,13.07
2023-03-16T16:24:31.301Z,13.17
2023-03-16T16:26:58.099Z,13.06
2023-03-16T16:29:31.114Z,12.81
2023-03-16T16:31:57.842Z,12.93
2023-03-16T16:34:25.426Z,13.00
2023-03-16T16:36:52.945Z,12.80
2023-03-16T16:39:19.824Z,13.02
2023-03-16T16:41:48.265Z,13.01
2023-03-16T16:44:17.105Z,12.91
2023-03-16T16:46:45.716Z,12.68
2023-03-16T16:49:15.450Z,12.74
2023-03-16T16:51:42.362Z,12.67
2023-03-16T16:54:16.147Z,12.81
2023-03-16T16:56:43.338Z,12.62
2023-03-16T16:59:15.534Z,12.37
2023-03-16T17:01:42.578Z,12.46
2023-03-16T17:04:14.811Z,12.53
2023-03-16T17:06:41.417Z,12.05
2023-03-16T17:09:20.074Z,12.16
2023-03-16T17:11:46.812Z,12.14
2023-03-16T17:14:17.356Z,12.28
2023-03-16T17:16:44.423Z,11.83
2023-03-16T17:19:18.234Z,11.90
2023-03-16T17:21:51.042Z,11.92
2023-03-16T17:24:33.374Z,11.73
2023-03-16T17:27:06.234Z,11.52
2023-03-16T17:29:38.792Z,11.65
2023-03-16T17:32:24.931Z,11.57
2023-03-16T17:34:56.119Z,11.41
2023-03-16T17:37:27.387Z,11.51
2023-03-16T17:39:59.449Z,11.37
2023-03-16T17:42:31.506Z,11.30
2023-03-16T17:45:38.092Z,11.28
2023-03-16T17:48:36.913Z,11.49
2023-03-16T17:51:29.320Z,11.21
2023-03-16T17:54:37.741Z,11.23
2023-03-16T17:57:36.030Z,11.28
2023-03-16T18:01:14.091Z,11.11
2023-03-16T18:03:31.206Z,11.18
2023-03-16T18:06:04.816Z,10.96
2023-03-16T18:08:59.247Z,11.27
2023-03-16T18:12:16.206Z,10.93
2023-03-16T18:14:53.636Z,10.90
2023-03-16T18:18:47.522Z,10.98
2023-03-16T18:20:53.366Z,10.99
2023-03-16T18:23:26.412Z,10.98
2023-03-16T18:26:31.679Z,10.74
2023-03-16T18:28:58.285Z,11.09
2023-03-16T18:31:30.365Z,10.91
2023-03-16T18:33:58.733Z,11.00
2023-03-16T18:36:28.833Z,10.87
2023-03-16T18:38:58.413Z,10.81
2023-03-16T18:41:50.093Z,10.76
2023-03-16T18:44:21.186Z,10.78
2023-03-16T18:47:35.297Z,10.74
2023-03-16T18:53:28.433Z,10.81
2023-03-16T18:56:51.927Z,10.63
2023-03-16T18:59:36.746Z,10.56
2023-03-16T19:02:11.424Z,10.75
2023-03-16T19:04:51.318Z,10.65
2023-03-16T19:07:34.473Z,10.55
2023-03-16T19:10:07.403Z,10.64
2023-03-16T19:12:44.519Z,10.47
2023-03-16T19:15:19.974Z,10.61
2023-03-16T19:17:48.005Z,10.58
2023-03-16T19:20:16.427Z,10.51
2023-03-16T19:22:44.506Z,10.54
2023-03-16T19:26:26.629Z,10.42
2023-03-16T19:29:23.970Z,10.49
2023-03-16T19:31:50.712Z,10.34
2023-03-16T19:34:18.821Z,10.50
2023-03-16T19:36:46.475Z,10.39
2023-03-16T19:39:14.536Z,10.51
2023-03-16T19:41:41.519Z,10.48
2023-03-16T19:44:15.048Z,10.35
2023-03-16T19:46:41.954Z,10.54
2023-03-16T19:49:15.531Z,10.36
2023-03-16T19:51:43.831Z,10.29
2023-03-16T19:54:19.844Z,10.32
2023-03-16T19:56:46.433Z,10.28
2023-03-16T19:59:13.360Z,10.31
2023-03-16T20:01:42.257Z,10.13
2023-03-16T20:04:14.705Z,10.23
2023-03-16T20:06:44.192Z,10.08
2023-03-16T20:09:10.818Z,10.06
2023-03-16T20:11:37.544Z,10.00
2023-03-16T20:14:04.705Z,10.21
2023-03-16T20:16:33.285Z,10.12
2023-03-16T20:19:02.414Z,9.99
2023-03-16T20:21:29.390Z,10.13
2023-03-16T20:23:57.373Z,9.99
2023-03-16T20:26:25.656Z,10.22
2023-03-16T20:28:53.531Z,9.98
2023-03-16T20:31:23.039Z,10.02
2023-03-16T20:33:51.000Z,10.15
2023-03-16T20:36:17.871Z,10.18
2023-03-16T20:38:44.783Z,10.17
2023-03-16T20:41:16.405Z,9.90
2023-03-16T20:43:43.543Z,10.05
2023-03-16T20:46:16.462Z,10.00
2023-03-16T20:48:43.198Z,9.93
2023-03-16T20:51:13.613Z,10.02
2023-03-16T20:53:40.423Z,9.95
2023-03-16T20:56:21.228Z,10.10
2023-03-16T20:58:51.602Z,9.85
2023-03-16T21:01:22.837Z,10.00
2023-03-16T21:03:51.219Z,9.92
2023-03-16T21:06:20.484Z,10.04
2023-03-16T21:08:47.620Z,10.01
2023-03-16T21:11:22.538Z,9.96
2023-03-16T21:13:49.326Z,9.98
2023-03-16T21:16:16.361Z,9.91
2023-03-16T21:18:43.022Z,10.09
2023-03-16T21:21:13.762Z,10.07
2023-03-16T21:23:40.418Z,10.01
2023-03-16T21:26:07.062Z,10.13
2023-03-16T21:28:36.125Z,9.96
2023-03-16T21:31:05.635Z,9.95
2023-03-16T21:33:35.032Z,10.00
2023-03-16T21:36:04.569Z,9.93
2023-03-16T21:38:32.122Z,9.89
2023-03-16T21:40:58.855Z,10.01
2023-03-16T21:43:25.624Z,10.12
2023-03-16T21:45:54.356Z,9.99
2023-03-16T21:48:23.744Z,10.01
2023-03-16T21:50:51.395Z,10.05
2023-03-16T21:53:20.642Z,10.11
2023-03-16T21:55:47.605Z,10.01
2023-03-16T21:58:14.179Z,10.04
2023-03-16T22:00:40.790Z,9.86
2023-03-16T22:03:22.173Z,9.91
2023-03-16T22:05:48.888Z,10.07
2023-03-16T22:08:18.544Z,10.18
2023-03-16T22:10:45.851Z,10.01
2023-03-16T22:13:15.542Z,10.10
2023-03-16T22:15:42.874Z,9.98
2023-03-16T22:18:29.119Z,9.97
2023-03-16T22:21:00.356Z,10.07
2023-03-16T22:23:31.367Z,10.02
2023-03-16T22:25:59.119Z,10.00
2023-03-16T22:28:26.682Z,9.92
2023-03-16T22:30:53.896Z,9.95
2023-03-16T22:33:27.223Z,10.03
2023-03-16T22:35:54.857Z,10.16
2023-03-16T22:38:22.156Z,10.19
2023-03-16T22:40:48.908Z,10.14
2023-03-16T22:43:18.506Z,10.20
2023-03-16T22:45:45.128Z,10.14
2023-03-16T22:48:18.034Z,10.14
2023-03-16T22:50:48.000Z,9.96
2023-03-16T22:53:20.344Z,10.14
2023-03-16T22:55:49.121Z,10.33
2023-03-16T22:58:21.456Z,10.32
2023-03-16T23:00:48.221Z,10.28
2023-03-16T23:03:18.633Z,10.33
2023-03-16T23:05:47.139Z,10.39
2023-03-16T23:08:16.185Z,10.39
2023-03-16T23:10:43.490Z,10.34
2023-03-16T23:13:15.051Z,10.53
2023-03-16T23:15:42.836Z,10.37
2023-03-16T23:18:18.089Z,10.27
2023-03-16T23:20:47.619Z,10.35
2023-03-16T23:23:15.061Z,10.44
2023-03-16T23:25:43.028Z,10.31
2023-03-16T23:28:12.734Z,10.45
2023-03-16T23:30:39.983Z,10.73
2023-03-16T23:33:06.581Z,10.67
2023-03-16T23:35:35.128Z,10.41
2023-03-16T23:38:03.915Z,10.39
2023-03-16T23:40:31.086Z,10.69
2023-03-16T23:43:00.658Z,10.56
2023-03-16T23:45:31.711Z,10.66
2023-03-16T23:48:00.951Z,10.64
2023-03-16T23:50:30.431Z,10.83
2023-03-16T23:52:58.036Z,10.64
2023-03-16T23:55:26.546Z,10.67
2023-03-16T23:57:53.332Z,10.68
